<?xml version="1.0" encoding="UTF-8"?>
<gpx creator="Wikiloc - http://www.wikiloc.com" version="1.1" xmlns="http://www.topografix.com/GPX/1/1" xmlns:xsi="http://www.w3.org/2001/XMLSchema-instance" xsi:schemaLocation="http://www.topografix.com/GPX/1/1 http://www.topografix.com/GPX/1/1/gpx.xsd">
  <trk>
    <name>2012-05-13 Cehennem deresi şelaleleri</name>
    <cmt>www.dogagezginleri.org</cmt>
    <desc>www.dogagezginleri.org</desc>
    <trkseg>
      <trkpt lat="41.720033" lon="27.838267">
        <ele>389.0</ele>
        <time>2012-05-13T07:58:45Z</time>
      </trkpt>
      <trkpt lat="41.720000" lon="27.838083">
        <ele>401.0</ele>
        <time>2012-05-13T08:07:37Z</time>
      </trkpt>
      <trkpt lat="41.720083" lon="27.838383">
        <ele>402.0</ele>
        <time>2012-05-13T08:08:47Z</time>
      </trkpt>
      <trkpt lat="41.719983" lon="27.838133">
        <ele>385.0</ele>
        <time>2012-05-13T08:14:18Z</time>
      </trkpt>
      <trkpt lat="41.719883" lon="27.837933">
        <ele>390.0</ele>
        <time>2012-05-13T08:14:38Z</time>
      </trkpt>
      <trkpt lat="41.719500" lon="27.837683">
        <ele>396.0</ele>
        <time>2012-05-13T08:15:27Z</time>
      </trkpt>
      <trkpt lat="41.719267" lon="27.837550">
        <ele>394.0</ele>
        <time>2012-05-13T08:15:56Z</time>
      </trkpt>
      <trkpt lat="41.718800" lon="27.837033">
        <ele>398.0</ele>
        <time>2012-05-13T08:16:56Z</time>
      </trkpt>
      <trkpt lat="41.718633" lon="27.836550">
        <ele>397.0</ele>
        <time>2012-05-13T08:17:35Z</time>
      </trkpt>
      <trkpt lat="41.718483" lon="27.835750">
        <ele>400.0</ele>
        <time>2012-05-13T08:18:38Z</time>
      </trkpt>
      <trkpt lat="41.718533" lon="27.835483">
        <ele>401.0</ele>
        <time>2012-05-13T08:18:57Z</time>
      </trkpt>
      <trkpt lat="41.718667" lon="27.835283">
        <ele>404.0</ele>
        <time>2012-05-13T08:19:17Z</time>
      </trkpt>
      <trkpt lat="41.718867" lon="27.835167">
        <ele>404.0</ele>
        <time>2012-05-13T08:19:40Z</time>
      </trkpt>
      <trkpt lat="41.719217" lon="27.834933">
        <ele>408.0</ele>
        <time>2012-05-13T08:20:37Z</time>
      </trkpt>
      <trkpt lat="41.719417" lon="27.834750">
        <ele>405.0</ele>
        <time>2012-05-13T08:21:04Z</time>
      </trkpt>
      <trkpt lat="41.719650" lon="27.834467">
        <ele>406.0</ele>
        <time>2012-05-13T08:21:30Z</time>
      </trkpt>
      <trkpt lat="41.719867" lon="27.833967">
        <ele>409.0</ele>
        <time>2012-05-13T08:22:04Z</time>
      </trkpt>
      <trkpt lat="41.719983" lon="27.833767">
        <ele>409.0</ele>
        <time>2012-05-13T08:22:18Z</time>
      </trkpt>
      <trkpt lat="41.720150" lon="27.833433">
        <ele>395.0</ele>
        <time>2012-05-13T08:22:46Z</time>
      </trkpt>
      <trkpt lat="41.720350" lon="27.833117">
        <ele>370.0</ele>
        <time>2012-05-13T08:23:19Z</time>
      </trkpt>
      <trkpt lat="41.720350" lon="27.832583">
        <ele>362.0</ele>
        <time>2012-05-13T08:23:55Z</time>
      </trkpt>
      <trkpt lat="41.720267" lon="27.832117">
        <ele>349.0</ele>
        <time>2012-05-13T08:24:32Z</time>
      </trkpt>
      <trkpt lat="41.720200" lon="27.831650">
        <ele>355.0</ele>
        <time>2012-05-13T08:25:01Z</time>
      </trkpt>
      <trkpt lat="41.720217" lon="27.831150">
        <ele>371.0</ele>
        <time>2012-05-13T08:25:30Z</time>
      </trkpt>
      <trkpt lat="41.720317" lon="27.830983">
        <ele>375.0</ele>
        <time>2012-05-13T08:25:45Z</time>
      </trkpt>
      <trkpt lat="41.720100" lon="27.830850">
        <ele>380.0</ele>
        <time>2012-05-13T08:26:06Z</time>
      </trkpt>
      <trkpt lat="41.719967" lon="27.830733">
        <ele>374.0</ele>
        <time>2012-05-13T08:26:24Z</time>
      </trkpt>
      <trkpt lat="41.719900" lon="27.830367">
        <ele>356.0</ele>
        <time>2012-05-13T08:27:06Z</time>
      </trkpt>
      <trkpt lat="41.719983" lon="27.830233">
        <ele>351.0</ele>
        <time>2012-05-13T08:27:23Z</time>
      </trkpt>
      <trkpt lat="41.720033" lon="27.830050">
        <ele>342.0</ele>
        <time>2012-05-13T08:27:44Z</time>
      </trkpt>
      <trkpt lat="41.720100" lon="27.829817">
        <ele>333.0</ele>
        <time>2012-05-13T08:28:07Z</time>
      </trkpt>
      <trkpt lat="41.720133" lon="27.829533">
        <ele>324.0</ele>
        <time>2012-05-13T08:28:34Z</time>
      </trkpt>
      <trkpt lat="41.720267" lon="27.829300">
        <ele>329.0</ele>
        <time>2012-05-13T08:28:56Z</time>
      </trkpt>
      <trkpt lat="41.720483" lon="27.829117">
        <ele>329.0</ele>
        <time>2012-05-13T08:29:30Z</time>
      </trkpt>
      <trkpt lat="41.720667" lon="27.828883">
        <ele>326.0</ele>
        <time>2012-05-13T08:29:56Z</time>
      </trkpt>
      <trkpt lat="41.720950" lon="27.828583">
        <ele>313.0</ele>
        <time>2012-05-13T08:30:36Z</time>
      </trkpt>
      <trkpt lat="41.720900" lon="27.828017">
        <ele>303.0</ele>
        <time>2012-05-13T08:31:22Z</time>
      </trkpt>
      <trkpt lat="41.720750" lon="27.827733">
        <ele>305.0</ele>
        <time>2012-05-13T08:31:50Z</time>
      </trkpt>
      <trkpt lat="41.720783" lon="27.827467">
        <ele>289.0</ele>
        <time>2012-05-13T08:32:14Z</time>
      </trkpt>
      <trkpt lat="41.720783" lon="27.827200">
        <ele>280.0</ele>
        <time>2012-05-13T08:32:34Z</time>
      </trkpt>
      <trkpt lat="41.720717" lon="27.826783">
        <ele>274.0</ele>
        <time>2012-05-13T08:33:11Z</time>
      </trkpt>
      <trkpt lat="41.720633" lon="27.826617">
        <ele>267.0</ele>
        <time>2012-05-13T08:33:38Z</time>
      </trkpt>
      <trkpt lat="41.720633" lon="27.826317">
        <ele>269.0</ele>
        <time>2012-05-13T08:34:02Z</time>
      </trkpt>
      <trkpt lat="41.720517" lon="27.825783">
        <ele>264.0</ele>
        <time>2012-05-13T08:34:40Z</time>
      </trkpt>
      <trkpt lat="41.720700" lon="27.825700">
        <ele>252.0</ele>
        <time>2012-05-13T08:35:04Z</time>
      </trkpt>
      <trkpt lat="41.721017" lon="27.825633">
        <ele>255.0</ele>
        <time>2012-05-13T08:35:41Z</time>
      </trkpt>
      <trkpt lat="41.721333" lon="27.825500">
        <ele>243.0</ele>
        <time>2012-05-13T08:36:20Z</time>
      </trkpt>
      <trkpt lat="41.721467" lon="27.825367">
        <ele>246.0</ele>
        <time>2012-05-13T08:36:37Z</time>
      </trkpt>
      <trkpt lat="41.721783" lon="27.825117">
        <ele>263.0</ele>
        <time>2012-05-13T08:37:10Z</time>
      </trkpt>
      <trkpt lat="41.721883" lon="27.824983">
        <ele>262.0</ele>
        <time>2012-05-13T08:37:52Z</time>
      </trkpt>
      <trkpt lat="41.722017" lon="27.824950">
        <ele>264.0</ele>
        <time>2012-05-13T08:39:41Z</time>
      </trkpt>
      <trkpt lat="41.721850" lon="27.824800">
        <ele>275.0</ele>
        <time>2012-05-13T08:44:56Z</time>
      </trkpt>
      <trkpt lat="41.721617" lon="27.824583">
        <ele>272.0</ele>
        <time>2012-05-13T08:45:50Z</time>
      </trkpt>
      <trkpt lat="41.721467" lon="27.824467">
        <ele>272.0</ele>
        <time>2012-05-13T08:46:24Z</time>
      </trkpt>
      <trkpt lat="41.721333" lon="27.824383">
        <ele>270.0</ele>
        <time>2012-05-13T08:46:49Z</time>
      </trkpt>
      <trkpt lat="41.721200" lon="27.824400">
        <ele>261.0</ele>
        <time>2012-05-13T08:47:14Z</time>
      </trkpt>
      <trkpt lat="41.721050" lon="27.824433">
        <ele>254.0</ele>
        <time>2012-05-13T08:47:35Z</time>
      </trkpt>
      <trkpt lat="41.720900" lon="27.824450">
        <ele>251.0</ele>
        <time>2012-05-13T08:47:59Z</time>
      </trkpt>
      <trkpt lat="41.720683" lon="27.824450">
        <ele>275.0</ele>
        <time>2012-05-13T08:49:18Z</time>
      </trkpt>
      <trkpt lat="41.720417" lon="27.824483">
        <ele>273.0</ele>
        <time>2012-05-13T08:51:13Z</time>
      </trkpt>
      <trkpt lat="41.720283" lon="27.824467">
        <ele>272.0</ele>
        <time>2012-05-13T08:52:02Z</time>
      </trkpt>
      <trkpt lat="41.720033" lon="27.824450">
        <ele>266.0</ele>
        <time>2012-05-13T08:52:46Z</time>
      </trkpt>
      <trkpt lat="41.719650" lon="27.824367">
        <ele>267.0</ele>
        <time>2012-05-13T08:55:06Z</time>
      </trkpt>
      <trkpt lat="41.719417" lon="27.824333">
        <ele>267.0</ele>
        <time>2012-05-13T08:55:44Z</time>
      </trkpt>
      <trkpt lat="41.719117" lon="27.824267">
        <ele>266.0</ele>
        <time>2012-05-13T08:56:27Z</time>
      </trkpt>
      <trkpt lat="41.718983" lon="27.824217">
        <ele>271.0</ele>
        <time>2012-05-13T08:57:37Z</time>
      </trkpt>
      <trkpt lat="41.718817" lon="27.824200">
        <ele>270.0</ele>
        <time>2012-05-13T08:58:04Z</time>
      </trkpt>
      <trkpt lat="41.718550" lon="27.824233">
        <ele>264.0</ele>
        <time>2012-05-13T08:58:46Z</time>
      </trkpt>
      <trkpt lat="41.718367" lon="27.824283">
        <ele>264.0</ele>
        <time>2012-05-13T08:59:56Z</time>
      </trkpt>
      <trkpt lat="41.718250" lon="27.824367">
        <ele>283.0</ele>
        <time>2012-05-13T09:00:50Z</time>
      </trkpt>
      <trkpt lat="41.718050" lon="27.824417">
        <ele>277.0</ele>
        <time>2012-05-13T09:01:15Z</time>
      </trkpt>
      <trkpt lat="41.717933" lon="27.824533">
        <ele>269.0</ele>
        <time>2012-05-13T09:02:59Z</time>
      </trkpt>
      <trkpt lat="41.718083" lon="27.824467">
        <ele>265.0</ele>
        <time>2012-05-13T09:06:23Z</time>
      </trkpt>
      <trkpt lat="41.718000" lon="27.824533">
        <ele>263.0</ele>
        <time>2012-05-13T09:08:32Z</time>
      </trkpt>
      <trkpt lat="41.717883" lon="27.824667">
        <ele>266.0</ele>
        <time>2012-05-13T09:11:45Z</time>
      </trkpt>
      <trkpt lat="41.717733" lon="27.824667">
        <ele>272.0</ele>
        <time>2012-05-13T09:12:26Z</time>
      </trkpt>
      <trkpt lat="41.717567" lon="27.824683">
        <ele>271.0</ele>
        <time>2012-05-13T09:13:08Z</time>
      </trkpt>
      <trkpt lat="41.717700" lon="27.824583">
        <ele>262.0</ele>
        <time>2012-05-13T09:15:18Z</time>
      </trkpt>
      <trkpt lat="41.717833" lon="27.824533">
        <ele>276.0</ele>
        <time>2012-05-13T09:16:04Z</time>
      </trkpt>
      <trkpt lat="41.717717" lon="27.824617">
        <ele>276.0</ele>
        <time>2012-05-13T09:17:00Z</time>
      </trkpt>
      <trkpt lat="41.717483" lon="27.824550">
        <ele>262.0</ele>
        <time>2012-05-13T09:19:00Z</time>
      </trkpt>
      <trkpt lat="41.717300" lon="27.824550">
        <ele>263.0</ele>
        <time>2012-05-13T09:20:11Z</time>
      </trkpt>
      <trkpt lat="41.717183" lon="27.824583">
        <ele>265.0</ele>
        <time>2012-05-13T09:25:20Z</time>
      </trkpt>
      <trkpt lat="41.717067" lon="27.824583">
        <ele>262.0</ele>
        <time>2012-05-13T09:25:59Z</time>
      </trkpt>
      <trkpt lat="41.716933" lon="27.824600">
        <ele>267.0</ele>
        <time>2012-05-13T09:30:00Z</time>
      </trkpt>
      <trkpt lat="41.716767" lon="27.824683">
        <ele>264.0</ele>
        <time>2012-05-13T09:31:32Z</time>
      </trkpt>
      <trkpt lat="41.716583" lon="27.824683">
        <ele>261.0</ele>
        <time>2012-05-13T09:33:13Z</time>
      </trkpt>
      <trkpt lat="41.716417" lon="27.824783">
        <ele>258.0</ele>
        <time>2012-05-13T09:33:57Z</time>
      </trkpt>
      <trkpt lat="41.716250" lon="27.824817">
        <ele>262.0</ele>
        <time>2012-05-13T09:34:55Z</time>
      </trkpt>
      <trkpt lat="41.716067" lon="27.824883">
        <ele>255.0</ele>
        <time>2012-05-13T09:35:35Z</time>
      </trkpt>
      <trkpt lat="41.715933" lon="27.824933">
        <ele>251.0</ele>
        <time>2012-05-13T09:36:01Z</time>
      </trkpt>
      <trkpt lat="41.715733" lon="27.825017">
        <ele>244.0</ele>
        <time>2012-05-13T09:36:57Z</time>
      </trkpt>
      <trkpt lat="41.715583" lon="27.825150">
        <ele>243.0</ele>
        <time>2012-05-13T09:37:35Z</time>
      </trkpt>
      <trkpt lat="41.715383" lon="27.825233">
        <ele>249.0</ele>
        <time>2012-05-13T09:38:48Z</time>
      </trkpt>
      <trkpt lat="41.715250" lon="27.825200">
        <ele>255.0</ele>
        <time>2012-05-13T09:39:19Z</time>
      </trkpt>
      <trkpt lat="41.715050" lon="27.825150">
        <ele>256.0</ele>
        <time>2012-05-13T09:40:07Z</time>
      </trkpt>
      <trkpt lat="41.714900" lon="27.825167">
        <ele>253.0</ele>
        <time>2012-05-13T09:40:26Z</time>
      </trkpt>
      <trkpt lat="41.714750" lon="27.825150">
        <ele>253.0</ele>
        <time>2012-05-13T09:41:49Z</time>
      </trkpt>
      <trkpt lat="41.714600" lon="27.825167">
        <ele>254.0</ele>
        <time>2012-05-13T09:42:57Z</time>
      </trkpt>
      <trkpt lat="41.714450" lon="27.825167">
        <ele>255.0</ele>
        <time>2012-05-13T09:44:24Z</time>
      </trkpt>
      <trkpt lat="41.714350" lon="27.824933">
        <ele>256.0</ele>
        <time>2012-05-13T09:47:30Z</time>
      </trkpt>
      <trkpt lat="41.714267" lon="27.824750">
        <ele>253.0</ele>
        <time>2012-05-13T09:49:15Z</time>
      </trkpt>
      <trkpt lat="41.714200" lon="27.824533">
        <ele>248.0</ele>
        <time>2012-05-13T09:51:37Z</time>
      </trkpt>
      <trkpt lat="41.714200" lon="27.824367">
        <ele>264.0</ele>
        <time>2012-05-13T09:56:02Z</time>
      </trkpt>
      <trkpt lat="41.714017" lon="27.824050">
        <ele>271.0</ele>
        <time>2012-05-13T09:57:30Z</time>
      </trkpt>
      <trkpt lat="41.713867" lon="27.823667">
        <ele>272.0</ele>
        <time>2012-05-13T09:58:12Z</time>
      </trkpt>
      <trkpt lat="41.713783" lon="27.823400">
        <ele>269.0</ele>
        <time>2012-05-13T09:58:40Z</time>
      </trkpt>
      <trkpt lat="41.713617" lon="27.823150">
        <ele>269.0</ele>
        <time>2012-05-13T09:59:05Z</time>
      </trkpt>
      <trkpt lat="41.713483" lon="27.823117">
        <ele>261.0</ele>
        <time>2012-05-13T09:59:29Z</time>
      </trkpt>
      <trkpt lat="41.713400" lon="27.823367">
        <ele>265.0</ele>
        <time>2012-05-13T10:00:38Z</time>
      </trkpt>
      <trkpt lat="41.713283" lon="27.823400">
        <ele>270.0</ele>
        <time>2012-05-13T10:01:31Z</time>
      </trkpt>
      <trkpt lat="41.713200" lon="27.823267">
        <ele>273.0</ele>
        <time>2012-05-13T10:04:31Z</time>
      </trkpt>
      <trkpt lat="41.713050" lon="27.823217">
        <ele>273.0</ele>
        <time>2012-05-13T10:05:40Z</time>
      </trkpt>
      <trkpt lat="41.712767" lon="27.823067">
        <ele>279.0</ele>
        <time>2012-05-13T10:06:29Z</time>
      </trkpt>
      <trkpt lat="41.712650" lon="27.822967">
        <ele>282.0</ele>
        <time>2012-05-13T10:06:56Z</time>
      </trkpt>
      <trkpt lat="41.712500" lon="27.822850">
        <ele>284.0</ele>
        <time>2012-05-13T10:07:32Z</time>
      </trkpt>
      <trkpt lat="41.712283" lon="27.822833">
        <ele>286.0</ele>
        <time>2012-05-13T10:08:05Z</time>
      </trkpt>
      <trkpt lat="41.712000" lon="27.822833">
        <ele>284.0</ele>
        <time>2012-05-13T10:09:15Z</time>
      </trkpt>
      <trkpt lat="41.712350" lon="27.823000">
        <ele>280.0</ele>
        <time>2012-05-13T10:10:30Z</time>
      </trkpt>
      <trkpt lat="41.712567" lon="27.823083">
        <ele>279.0</ele>
        <time>2012-05-13T10:10:51Z</time>
      </trkpt>
      <trkpt lat="41.712733" lon="27.823183">
        <ele>273.0</ele>
        <time>2012-05-13T10:11:12Z</time>
      </trkpt>
      <trkpt lat="41.712917" lon="27.823200">
        <ele>270.0</ele>
        <time>2012-05-13T10:11:38Z</time>
      </trkpt>
      <trkpt lat="41.713067" lon="27.823250">
        <ele>269.0</ele>
        <time>2012-05-13T10:11:55Z</time>
      </trkpt>
      <trkpt lat="41.713183" lon="27.823383">
        <ele>263.0</ele>
        <time>2012-05-13T10:12:17Z</time>
      </trkpt>
      <trkpt lat="41.713367" lon="27.823550">
        <ele>257.0</ele>
        <time>2012-05-13T10:12:48Z</time>
      </trkpt>
      <trkpt lat="41.713417" lon="27.823767">
        <ele>254.0</ele>
        <time>2012-05-13T10:13:16Z</time>
      </trkpt>
      <trkpt lat="41.713450" lon="27.823933">
        <ele>247.0</ele>
        <time>2012-05-13T10:14:17Z</time>
      </trkpt>
      <trkpt lat="41.713417" lon="27.824133">
        <ele>246.0</ele>
        <time>2012-05-13T10:17:43Z</time>
      </trkpt>
      <trkpt lat="41.713483" lon="27.824300">
        <ele>262.0</ele>
        <time>2012-05-13T10:20:43Z</time>
      </trkpt>
      <trkpt lat="41.713517" lon="27.824450">
        <ele>255.0</ele>
        <time>2012-05-13T10:23:18Z</time>
      </trkpt>
      <trkpt lat="41.713517" lon="27.824600">
        <ele>272.0</ele>
        <time>2012-05-13T10:26:34Z</time>
      </trkpt>
      <trkpt lat="41.713333" lon="27.824667">
        <ele>272.0</ele>
        <time>2012-05-13T10:31:35Z</time>
      </trkpt>
      <trkpt lat="41.713067" lon="27.824567">
        <ele>271.0</ele>
        <time>2012-05-13T10:35:59Z</time>
      </trkpt>
      <trkpt lat="41.712550" lon="27.824483">
        <ele>281.0</ele>
        <time>2012-05-13T10:36:44Z</time>
      </trkpt>
      <trkpt lat="41.712183" lon="27.824500">
        <ele>282.0</ele>
        <time>2012-05-13T10:37:13Z</time>
      </trkpt>
      <trkpt lat="41.711733" lon="27.824417">
        <ele>274.0</ele>
        <time>2012-05-13T10:37:51Z</time>
      </trkpt>
      <trkpt lat="41.711633" lon="27.824433">
        <ele>271.0</ele>
        <time>2012-05-13T10:41:18Z</time>
      </trkpt>
      <trkpt lat="41.711767" lon="27.824433">
        <ele>276.0</ele>
        <time>2012-05-13T10:44:30Z</time>
      </trkpt>
      <trkpt lat="41.711883" lon="27.824517">
        <ele>278.0</ele>
        <time>2012-05-13T10:45:32Z</time>
      </trkpt>
      <trkpt lat="41.712033" lon="27.824617">
        <ele>278.0</ele>
        <time>2012-05-13T10:46:20Z</time>
      </trkpt>
      <trkpt lat="41.712167" lon="27.824517">
        <ele>283.0</ele>
        <time>2012-05-13T10:48:05Z</time>
      </trkpt>
      <trkpt lat="41.712333" lon="27.824567">
        <ele>285.0</ele>
        <time>2012-05-13T10:48:52Z</time>
      </trkpt>
      <trkpt lat="41.712467" lon="27.824683">
        <ele>287.0</ele>
        <time>2012-05-13T10:49:43Z</time>
      </trkpt>
      <trkpt lat="41.712250" lon="27.824650">
        <ele>281.0</ele>
        <time>2012-05-13T10:54:36Z</time>
      </trkpt>
      <trkpt lat="41.712550" lon="27.824800">
        <ele>285.0</ele>
        <time>2012-05-13T10:55:25Z</time>
      </trkpt>
      <trkpt lat="41.712833" lon="27.825050">
        <ele>295.0</ele>
        <time>2012-05-13T10:56:18Z</time>
      </trkpt>
      <trkpt lat="41.712967" lon="27.825233">
        <ele>299.0</ele>
        <time>2012-05-13T10:56:48Z</time>
      </trkpt>
      <trkpt lat="41.713050" lon="27.825367">
        <ele>300.0</ele>
        <time>2012-05-13T10:57:11Z</time>
      </trkpt>
      <trkpt lat="41.713000" lon="27.825800">
        <ele>297.0</ele>
        <time>2012-05-13T10:57:57Z</time>
      </trkpt>
      <trkpt lat="41.712900" lon="27.826117">
        <ele>292.0</ele>
        <time>2012-05-13T10:58:38Z</time>
      </trkpt>
      <trkpt lat="41.712717" lon="27.826433">
        <ele>287.0</ele>
        <time>2012-05-13T10:59:11Z</time>
      </trkpt>
      <trkpt lat="41.712583" lon="27.826533">
        <ele>283.0</ele>
        <time>2012-05-13T10:59:51Z</time>
      </trkpt>
      <trkpt lat="41.712317" lon="27.826767">
        <ele>277.0</ele>
        <time>2012-05-13T11:00:25Z</time>
      </trkpt>
      <trkpt lat="41.711650" lon="27.827250">
        <ele>269.0</ele>
        <time>2012-05-13T11:01:38Z</time>
      </trkpt>
      <trkpt lat="41.711500" lon="27.827333">
        <ele>267.0</ele>
        <time>2012-05-13T11:02:16Z</time>
      </trkpt>
      <trkpt lat="41.711333" lon="27.827517">
        <ele>271.0</ele>
        <time>2012-05-13T11:03:00Z</time>
      </trkpt>
      <trkpt lat="41.711217" lon="27.827717">
        <ele>272.0</ele>
        <time>2012-05-13T11:03:18Z</time>
      </trkpt>
      <trkpt lat="41.711217" lon="27.827983">
        <ele>272.0</ele>
        <time>2012-05-13T11:03:36Z</time>
      </trkpt>
      <trkpt lat="41.711467" lon="27.828250">
        <ele>272.0</ele>
        <time>2012-05-13T11:04:05Z</time>
      </trkpt>
      <trkpt lat="41.711783" lon="27.828300">
        <ele>270.0</ele>
        <time>2012-05-13T11:04:31Z</time>
      </trkpt>
      <trkpt lat="41.712133" lon="27.828383">
        <ele>261.0</ele>
        <time>2012-05-13T11:05:06Z</time>
      </trkpt>
      <trkpt lat="41.712383" lon="27.828433">
        <ele>261.0</ele>
        <time>2012-05-13T11:05:33Z</time>
      </trkpt>
      <trkpt lat="41.712667" lon="27.828500">
        <ele>255.0</ele>
        <time>2012-05-13T11:06:05Z</time>
      </trkpt>
      <trkpt lat="41.712817" lon="27.828633">
        <ele>248.0</ele>
        <time>2012-05-13T11:06:24Z</time>
      </trkpt>
      <trkpt lat="41.712683" lon="27.828733">
        <ele>230.0</ele>
        <time>2012-05-13T11:07:06Z</time>
      </trkpt>
      <trkpt lat="41.712550" lon="27.828683">
        <ele>227.0</ele>
        <time>2012-05-13T11:07:28Z</time>
      </trkpt>
      <trkpt lat="41.712383" lon="27.828600">
        <ele>223.0</ele>
        <time>2012-05-13T11:07:49Z</time>
      </trkpt>
      <trkpt lat="41.712100" lon="27.828717">
        <ele>228.0</ele>
        <time>2012-05-13T11:08:16Z</time>
      </trkpt>
      <trkpt lat="41.711950" lon="27.828900">
        <ele>234.0</ele>
        <time>2012-05-13T11:08:33Z</time>
      </trkpt>
      <trkpt lat="41.711717" lon="27.829133">
        <ele>234.0</ele>
        <time>2012-05-13T11:09:01Z</time>
      </trkpt>
      <trkpt lat="41.711533" lon="27.829300">
        <ele>238.0</ele>
        <time>2012-05-13T11:09:21Z</time>
      </trkpt>
      <trkpt lat="41.711450" lon="27.829533">
        <ele>241.0</ele>
        <time>2012-05-13T11:09:37Z</time>
      </trkpt>
      <trkpt lat="41.711533" lon="27.829933">
        <ele>246.0</ele>
        <time>2012-05-13T11:10:04Z</time>
      </trkpt>
      <trkpt lat="41.711867" lon="27.830450">
        <ele>266.0</ele>
        <time>2012-05-13T11:10:55Z</time>
      </trkpt>
      <trkpt lat="41.712017" lon="27.830667">
        <ele>270.0</ele>
        <time>2012-05-13T11:11:19Z</time>
      </trkpt>
      <trkpt lat="41.712117" lon="27.830883">
        <ele>272.0</ele>
        <time>2012-05-13T11:12:19Z</time>
      </trkpt>
      <trkpt lat="41.712250" lon="27.831033">
        <ele>273.0</ele>
        <time>2012-05-13T11:13:12Z</time>
      </trkpt>
      <trkpt lat="41.712433" lon="27.831283">
        <ele>272.0</ele>
        <time>2012-05-13T11:13:38Z</time>
      </trkpt>
      <trkpt lat="41.712533" lon="27.831450">
        <ele>270.0</ele>
        <time>2012-05-13T11:13:53Z</time>
      </trkpt>
      <trkpt lat="41.712667" lon="27.831667">
        <ele>265.0</ele>
        <time>2012-05-13T11:14:15Z</time>
      </trkpt>
      <trkpt lat="41.712517" lon="27.831800">
        <ele>252.0</ele>
        <time>2012-05-13T11:16:35Z</time>
      </trkpt>
      <trkpt lat="41.712200" lon="27.831683">
        <ele>243.0</ele>
        <time>2012-05-13T11:17:10Z</time>
      </trkpt>
      <trkpt lat="41.711950" lon="27.831533">
        <ele>239.0</ele>
        <time>2012-05-13T11:17:34Z</time>
      </trkpt>
      <trkpt lat="41.711750" lon="27.831467">
        <ele>241.0</ele>
        <time>2012-05-13T11:17:47Z</time>
      </trkpt>
      <trkpt lat="41.711383" lon="27.831517">
        <ele>246.0</ele>
        <time>2012-05-13T11:18:12Z</time>
      </trkpt>
      <trkpt lat="41.711167" lon="27.831717">
        <ele>249.0</ele>
        <time>2012-05-13T11:18:31Z</time>
      </trkpt>
      <trkpt lat="41.710900" lon="27.832367">
        <ele>254.0</ele>
        <time>2012-05-13T11:19:11Z</time>
      </trkpt>
      <trkpt lat="41.710867" lon="27.832883">
        <ele>259.0</ele>
        <time>2012-05-13T11:19:49Z</time>
      </trkpt>
      <trkpt lat="41.710850" lon="27.833167">
        <ele>265.0</ele>
        <time>2012-05-13T11:21:30Z</time>
      </trkpt>
      <trkpt lat="41.710900" lon="27.833500">
        <ele>262.0</ele>
        <time>2012-05-13T11:22:22Z</time>
      </trkpt>
      <trkpt lat="41.711067" lon="27.834050">
        <ele>265.0</ele>
        <time>2012-05-13T11:23:03Z</time>
      </trkpt>
      <trkpt lat="41.711183" lon="27.834167">
        <ele>267.0</ele>
        <time>2012-05-13T11:23:23Z</time>
      </trkpt>
      <trkpt lat="41.711317" lon="27.834350">
        <ele>265.0</ele>
        <time>2012-05-13T11:23:43Z</time>
      </trkpt>
      <trkpt lat="41.711400" lon="27.834533">
        <ele>269.0</ele>
        <time>2012-05-13T11:24:35Z</time>
      </trkpt>
      <trkpt lat="41.711600" lon="27.834783">
        <ele>274.0</ele>
        <time>2012-05-13T11:25:11Z</time>
      </trkpt>
      <trkpt lat="41.711733" lon="27.834900">
        <ele>278.0</ele>
        <time>2012-05-13T11:25:25Z</time>
      </trkpt>
      <trkpt lat="41.711900" lon="27.835033">
        <ele>280.0</ele>
        <time>2012-05-13T11:25:44Z</time>
      </trkpt>
      <trkpt lat="41.712150" lon="27.835183">
        <ele>282.0</ele>
        <time>2012-05-13T11:26:29Z</time>
      </trkpt>
      <trkpt lat="41.712033" lon="27.835600">
        <ele>282.0</ele>
        <time>2012-05-13T11:27:08Z</time>
      </trkpt>
      <trkpt lat="41.712050" lon="27.836067">
        <ele>275.0</ele>
        <time>2012-05-13T11:27:40Z</time>
      </trkpt>
      <trkpt lat="41.712100" lon="27.836417">
        <ele>275.0</ele>
        <time>2012-05-13T11:28:05Z</time>
      </trkpt>
      <trkpt lat="41.712183" lon="27.836833">
        <ele>279.0</ele>
        <time>2012-05-13T11:28:29Z</time>
      </trkpt>
      <trkpt lat="41.712400" lon="27.837133">
        <ele>282.0</ele>
        <time>2012-05-13T11:28:57Z</time>
      </trkpt>
      <trkpt lat="41.712483" lon="27.837300">
        <ele>283.0</ele>
        <time>2012-05-13T11:29:29Z</time>
      </trkpt>
      <trkpt lat="41.712633" lon="27.837550">
        <ele>276.0</ele>
        <time>2012-05-13T11:30:05Z</time>
      </trkpt>
      <trkpt lat="41.712733" lon="27.837717">
        <ele>273.0</ele>
        <time>2012-05-13T11:30:20Z</time>
      </trkpt>
      <trkpt lat="41.712900" lon="27.837967">
        <ele>274.0</ele>
        <time>2012-05-13T11:30:42Z</time>
      </trkpt>
      <trkpt lat="41.713050" lon="27.838350">
        <ele>280.0</ele>
        <time>2012-05-13T11:31:19Z</time>
      </trkpt>
      <trkpt lat="41.713200" lon="27.838533">
        <ele>284.0</ele>
        <time>2012-05-13T11:31:40Z</time>
      </trkpt>
      <trkpt lat="41.713600" lon="27.838700">
        <ele>293.0</ele>
        <time>2012-05-13T11:32:16Z</time>
      </trkpt>
      <trkpt lat="41.713783" lon="27.838750">
        <ele>299.0</ele>
        <time>2012-05-13T11:32:29Z</time>
      </trkpt>
      <trkpt lat="41.713983" lon="27.839617">
        <ele>332.0</ele>
        <time>2012-05-13T11:33:08Z</time>
      </trkpt>
      <trkpt lat="41.714083" lon="27.839417">
        <ele>309.0</ele>
        <time>2012-05-13T11:33:15Z</time>
      </trkpt>
      <trkpt lat="41.713950" lon="27.839333">
        <ele>309.0</ele>
        <time>2012-05-13T11:33:43Z</time>
      </trkpt>
      <trkpt lat="41.713817" lon="27.839400">
        <ele>312.0</ele>
        <time>2012-05-13T11:34:08Z</time>
      </trkpt>
      <trkpt lat="41.713667" lon="27.839500">
        <ele>310.0</ele>
        <time>2012-05-13T11:35:00Z</time>
      </trkpt>
      <trkpt lat="41.713450" lon="27.839567">
        <ele>312.0</ele>
        <time>2012-05-13T11:35:29Z</time>
      </trkpt>
      <trkpt lat="41.713300" lon="27.839567">
        <ele>313.0</ele>
        <time>2012-05-13T11:35:50Z</time>
      </trkpt>
      <trkpt lat="41.713200" lon="27.839750">
        <ele>319.0</ele>
        <time>2012-05-13T11:36:20Z</time>
      </trkpt>
      <trkpt lat="41.713117" lon="27.840083">
        <ele>326.0</ele>
        <time>2012-05-13T11:37:03Z</time>
      </trkpt>
      <trkpt lat="41.713200" lon="27.840300">
        <ele>324.0</ele>
        <time>2012-05-13T11:37:30Z</time>
      </trkpt>
      <trkpt lat="41.713367" lon="27.840550">
        <ele>334.0</ele>
        <time>2012-05-13T11:38:14Z</time>
      </trkpt>
      <trkpt lat="41.713217" lon="27.840633">
        <ele>342.0</ele>
        <time>2012-05-13T11:39:01Z</time>
      </trkpt>
      <trkpt lat="41.713117" lon="27.840767">
        <ele>355.0</ele>
        <time>2012-05-13T11:43:14Z</time>
      </trkpt>
      <trkpt lat="41.712850" lon="27.841050">
        <ele>350.0</ele>
        <time>2012-05-13T11:43:52Z</time>
      </trkpt>
      <trkpt lat="41.712733" lon="27.841417">
        <ele>349.0</ele>
        <time>2012-05-13T11:44:33Z</time>
      </trkpt>
      <trkpt lat="41.712733" lon="27.841783">
        <ele>343.0</ele>
        <time>2012-05-13T11:45:07Z</time>
      </trkpt>
      <trkpt lat="41.712750" lon="27.842100">
        <ele>341.0</ele>
        <time>2012-05-13T11:45:31Z</time>
      </trkpt>
      <trkpt lat="41.712767" lon="27.842350">
        <ele>342.0</ele>
        <time>2012-05-13T11:45:50Z</time>
      </trkpt>
      <trkpt lat="41.712683" lon="27.842567">
        <ele>346.0</ele>
        <time>2012-05-13T11:46:29Z</time>
      </trkpt>
      <trkpt lat="41.712600" lon="27.842733">
        <ele>353.0</ele>
        <time>2012-05-13T11:46:59Z</time>
      </trkpt>
      <trkpt lat="41.712567" lon="27.843067">
        <ele>361.0</ele>
        <time>2012-05-13T11:47:41Z</time>
      </trkpt>
      <trkpt lat="41.712517" lon="27.843267">
        <ele>363.0</ele>
        <time>2012-05-13T11:48:03Z</time>
      </trkpt>
      <trkpt lat="41.712533" lon="27.843500">
        <ele>367.0</ele>
        <time>2012-05-13T11:48:23Z</time>
      </trkpt>
      <trkpt lat="41.712617" lon="27.843733">
        <ele>370.0</ele>
        <time>2012-05-13T11:48:48Z</time>
      </trkpt>
      <trkpt lat="41.712767" lon="27.843983">
        <ele>376.0</ele>
        <time>2012-05-13T11:49:16Z</time>
      </trkpt>
      <trkpt lat="41.713033" lon="27.844200">
        <ele>382.0</ele>
        <time>2012-05-13T11:49:47Z</time>
      </trkpt>
      <trkpt lat="41.713283" lon="27.844367">
        <ele>388.0</ele>
        <time>2012-05-13T11:50:14Z</time>
      </trkpt>
      <trkpt lat="41.713450" lon="27.844483">
        <ele>391.0</ele>
        <time>2012-05-13T11:50:32Z</time>
      </trkpt>
      <trkpt lat="41.713617" lon="27.844667">
        <ele>392.0</ele>
        <time>2012-05-13T11:50:57Z</time>
      </trkpt>
      <trkpt lat="41.713683" lon="27.845000">
        <ele>390.0</ele>
        <time>2012-05-13T11:51:26Z</time>
      </trkpt>
      <trkpt lat="41.713767" lon="27.845217">
        <ele>389.0</ele>
        <time>2012-05-13T11:51:44Z</time>
      </trkpt>
      <trkpt lat="41.713750" lon="27.845517">
        <ele>388.0</ele>
        <time>2012-05-13T11:52:03Z</time>
      </trkpt>
      <trkpt lat="41.713817" lon="27.845867">
        <ele>388.0</ele>
        <time>2012-05-13T11:52:31Z</time>
      </trkpt>
      <trkpt lat="41.713817" lon="27.846183">
        <ele>389.0</ele>
        <time>2012-05-13T11:52:53Z</time>
      </trkpt>
      <trkpt lat="41.713683" lon="27.846433">
        <ele>386.0</ele>
        <time>2012-05-13T11:53:14Z</time>
      </trkpt>
      <trkpt lat="41.713533" lon="27.846733">
        <ele>385.0</ele>
        <time>2012-05-13T11:53:38Z</time>
      </trkpt>
      <trkpt lat="41.713333" lon="27.847100">
        <ele>383.0</ele>
        <time>2012-05-13T11:54:07Z</time>
      </trkpt>
      <trkpt lat="41.713183" lon="27.847233">
        <ele>380.0</ele>
        <time>2012-05-13T11:54:25Z</time>
      </trkpt>
      <trkpt lat="41.712950" lon="27.847083">
        <ele>376.0</ele>
        <time>2012-05-13T11:54:50Z</time>
      </trkpt>
      <trkpt lat="41.712633" lon="27.847017">
        <ele>368.0</ele>
        <time>2012-05-13T11:55:24Z</time>
      </trkpt>
      <trkpt lat="41.712483" lon="27.847067">
        <ele>366.0</ele>
        <time>2012-05-13T11:55:43Z</time>
      </trkpt>
      <trkpt lat="41.712283" lon="27.847200">
        <ele>366.0</ele>
        <time>2012-05-13T11:56:07Z</time>
      </trkpt>
      <trkpt lat="41.711833" lon="27.847283">
        <ele>366.0</ele>
        <time>2012-05-13T11:56:46Z</time>
      </trkpt>
      <trkpt lat="41.711567" lon="27.847367">
        <ele>364.0</ele>
        <time>2012-05-13T11:57:11Z</time>
      </trkpt>
      <trkpt lat="41.711050" lon="27.847800">
        <ele>367.0</ele>
        <time>2012-05-13T11:57:59Z</time>
      </trkpt>
      <trkpt lat="41.710833" lon="27.847900">
        <ele>367.0</ele>
        <time>2012-05-13T11:58:17Z</time>
      </trkpt>
      <trkpt lat="41.710583" lon="27.848083">
        <ele>367.0</ele>
        <time>2012-05-13T11:58:41Z</time>
      </trkpt>
      <trkpt lat="41.710450" lon="27.848217">
        <ele>367.0</ele>
        <time>2012-05-13T11:58:55Z</time>
      </trkpt>
      <trkpt lat="41.710333" lon="27.848400">
        <ele>366.0</ele>
        <time>2012-05-13T11:59:09Z</time>
      </trkpt>
      <trkpt lat="41.710100" lon="27.848817">
        <ele>368.0</ele>
        <time>2012-05-13T11:59:41Z</time>
      </trkpt>
      <trkpt lat="41.709983" lon="27.849133">
        <ele>370.0</ele>
        <time>2012-05-13T12:00:00Z</time>
      </trkpt>
      <trkpt lat="41.709300" lon="27.849900">
        <ele>378.0</ele>
        <time>2012-05-13T12:01:45Z</time>
      </trkpt>
      <trkpt lat="41.709550" lon="27.850367">
        <ele>377.0</ele>
        <time>2012-05-13T12:02:37Z</time>
      </trkpt>
      <trkpt lat="41.709700" lon="27.850650">
        <ele>374.0</ele>
        <time>2012-05-13T12:02:58Z</time>
      </trkpt>
      <trkpt lat="41.709700" lon="27.850867">
        <ele>365.0</ele>
        <time>2012-05-13T12:03:30Z</time>
      </trkpt>
      <trkpt lat="41.709800" lon="27.851117">
        <ele>360.0</ele>
        <time>2012-05-13T12:03:53Z</time>
      </trkpt>
      <trkpt lat="41.709867" lon="27.851350">
        <ele>356.0</ele>
        <time>2012-05-13T12:04:12Z</time>
      </trkpt>
      <trkpt lat="41.709917" lon="27.851667">
        <ele>349.0</ele>
        <time>2012-05-13T12:04:36Z</time>
      </trkpt>
      <trkpt lat="41.710017" lon="27.851900">
        <ele>345.0</ele>
        <time>2012-05-13T12:04:54Z</time>
      </trkpt>
      <trkpt lat="41.710150" lon="27.852150">
        <ele>341.0</ele>
        <time>2012-05-13T12:05:15Z</time>
      </trkpt>
      <trkpt lat="41.710317" lon="27.852283">
        <ele>341.0</ele>
        <time>2012-05-13T12:05:33Z</time>
      </trkpt>
      <trkpt lat="41.710483" lon="27.852367">
        <ele>341.0</ele>
        <time>2012-05-13T12:06:21Z</time>
      </trkpt>
      <trkpt lat="41.710383" lon="27.852583">
        <ele>336.0</ele>
        <time>2012-05-13T12:06:56Z</time>
      </trkpt>
      <trkpt lat="41.710367" lon="27.852767">
        <ele>327.0</ele>
        <time>2012-05-13T12:08:02Z</time>
      </trkpt>
      <trkpt lat="41.710550" lon="27.853000">
        <ele>319.0</ele>
        <time>2012-05-13T12:09:25Z</time>
      </trkpt>
      <trkpt lat="41.710567" lon="27.853217">
        <ele>311.0</ele>
        <time>2012-05-13T12:10:37Z</time>
      </trkpt>
      <trkpt lat="41.710600" lon="27.853417">
        <ele>310.0</ele>
        <time>2012-05-13T12:11:42Z</time>
      </trkpt>
      <trkpt lat="41.710650" lon="27.853583">
        <ele>305.0</ele>
        <time>2012-05-13T12:13:36Z</time>
      </trkpt>
      <trkpt lat="41.710650" lon="27.853850">
        <ele>296.0</ele>
        <time>2012-05-13T12:15:59Z</time>
      </trkpt>
      <trkpt lat="41.710617" lon="27.854150">
        <ele>293.0</ele>
        <time>2012-05-13T12:17:29Z</time>
      </trkpt>
      <trkpt lat="41.710517" lon="27.854417">
        <ele>296.0</ele>
        <time>2012-05-13T12:20:27Z</time>
      </trkpt>
      <trkpt lat="41.710383" lon="27.854617">
        <ele>282.0</ele>
        <time>2012-05-13T12:21:25Z</time>
      </trkpt>
      <trkpt lat="41.710200" lon="27.854750">
        <ele>276.0</ele>
        <time>2012-05-13T12:21:53Z</time>
      </trkpt>
      <trkpt lat="41.710133" lon="27.854983">
        <ele>266.0</ele>
        <time>2012-05-13T12:22:16Z</time>
      </trkpt>
      <trkpt lat="41.710133" lon="27.855267">
        <ele>264.0</ele>
        <time>2012-05-13T12:22:44Z</time>
      </trkpt>
      <trkpt lat="41.710067" lon="27.855450">
        <ele>259.0</ele>
        <time>2012-05-13T12:23:03Z</time>
      </trkpt>
      <trkpt lat="41.709983" lon="27.855650">
        <ele>260.0</ele>
        <time>2012-05-13T12:23:25Z</time>
      </trkpt>
      <trkpt lat="41.709917" lon="27.855917">
        <ele>266.0</ele>
        <time>2012-05-13T12:23:53Z</time>
      </trkpt>
      <trkpt lat="41.709933" lon="27.856200">
        <ele>264.0</ele>
        <time>2012-05-13T12:24:22Z</time>
      </trkpt>
      <trkpt lat="41.709783" lon="27.856467">
        <ele>267.0</ele>
        <time>2012-05-13T12:24:51Z</time>
      </trkpt>
      <trkpt lat="41.709683" lon="27.856700">
        <ele>269.0</ele>
        <time>2012-05-13T12:25:11Z</time>
      </trkpt>
      <trkpt lat="41.709617" lon="27.857050">
        <ele>277.0</ele>
        <time>2012-05-13T12:25:37Z</time>
      </trkpt>
      <trkpt lat="41.709550" lon="27.857233">
        <ele>283.0</ele>
        <time>2012-05-13T12:25:56Z</time>
      </trkpt>
      <trkpt lat="41.709517" lon="27.857483">
        <ele>291.0</ele>
        <time>2012-05-13T12:26:18Z</time>
      </trkpt>
      <trkpt lat="41.709533" lon="27.857750">
        <ele>299.0</ele>
        <time>2012-05-13T12:26:39Z</time>
      </trkpt>
      <trkpt lat="41.709517" lon="27.858117">
        <ele>303.0</ele>
        <time>2012-05-13T12:27:07Z</time>
      </trkpt>
      <trkpt lat="41.709433" lon="27.858400">
        <ele>307.0</ele>
        <time>2012-05-13T12:27:28Z</time>
      </trkpt>
      <trkpt lat="41.709300" lon="27.858683">
        <ele>314.0</ele>
        <time>2012-05-13T12:27:56Z</time>
      </trkpt>
      <trkpt lat="41.709233" lon="27.858983">
        <ele>317.0</ele>
        <time>2012-05-13T12:28:17Z</time>
      </trkpt>
      <trkpt lat="41.709250" lon="27.859350">
        <ele>322.0</ele>
        <time>2012-05-13T12:28:44Z</time>
      </trkpt>
      <trkpt lat="41.709217" lon="27.859667">
        <ele>324.0</ele>
        <time>2012-05-13T12:29:36Z</time>
      </trkpt>
      <trkpt lat="41.709067" lon="27.860017">
        <ele>324.0</ele>
        <time>2012-05-13T12:30:03Z</time>
      </trkpt>
      <trkpt lat="41.708983" lon="27.860267">
        <ele>324.0</ele>
        <time>2012-05-13T12:30:21Z</time>
      </trkpt>
      <trkpt lat="41.708867" lon="27.860450">
        <ele>325.0</ele>
        <time>2012-05-13T12:31:14Z</time>
      </trkpt>
      <trkpt lat="41.708983" lon="27.860767">
        <ele>327.0</ele>
        <time>2012-05-13T12:32:28Z</time>
      </trkpt>
    </trkseg>
  </trk></gpx>